Time;durP1;ratioP1;P1;durP2;ratioP2;P2;SDS_P1;SDS_P2;PMS_P1;PMS_P2;Temp;Humidity;BMP_temperature;BMP_pressure;BME280_temperature;BME280_humidity;BME280_pressure;Samples;Min_cycle;Max_cycle;Signal;HPM_P1;HPM_P2
2023/03/21 00:02:16;;;;;;;14.43;13.13;;;;;;;;;;5095367;28;20476;-65
2023/03/21 00:04:43;;;;;;;15.90;13.93;;;;;;;;;;5094789;28;20450;-65
2023/03/21 00:07:10;;;;;;;14.27;12.87;;;;;;;;;;5095292;28;20542;-65
2023/03/21 00:09:38;;;;;;;14.97;13.47;;;;;;;;;;5095018;28;20557;-65
2023/03/21 00:12:06;;;;;;;14.83;12.97;;;;;;;;;;5095217;28;20542;-65
2023/03/21 00:14:33;;;;;;;16.10;14.20;;;;;;;;;;5095257;28;20447;-65
2023/03/21 00:17:00;;;;;;;14.53;13.23;;;;;;;;;;5095250;28;20490;-65
2023/03/21 00:19:27;;;;;;;14.23;12.73;;;;;;;;;;5095140;28;20952;-65
2023/03/21 00:21:54;;;;;;;14.50;13.20;;;;;;;;;;5094866;28;20443;-65
2023/03/21 00:24:22;;;;;;;15.73;13.60;;;;;;;;;;5094828;28;20451;-65
2023/03/21 00:26:50;;;;;;;14.30;13.10;;;;;;;;;;5094977;28;20549;-65
2023/03/21 00:29:17;;;;;;;14.30;13.00;;;;;;;;;;5094872;28;20496;-65
2023/03/21 00:31:45;;;;;;;15.27;13.77;;;;;;;;;;5094711;28;20828;-65
2023/03/21 00:34:11;;;;;;;14.37;12.93;;;;;;;;;;5094787;28;20957;-65
2023/03/21 00:36:38;;;;;;;14.50;12.97;;;;;;;;;;5094702;28;20540;-65
2023/03/21 00:39:05;;;;;;;14.67;13.10;;;;;;;;;;5094519;28;20449;-65
2023/03/21 00:41:32;;;;;;;15.80;14.20;;;;;;;;;;5094704;28;20780;-65
2023/03/21 00:44:01;;;;;;;14.47;13.17;;;;;;;;;;5094533;28;20451;-65
2023/03/21 00:46:28;;;;;;;15.40;13.83;;;;;;;;;;5094548;28;20478;-65
2023/03/21 00:48:54;;;;;;;14.43;13.10;;;;;;;;;;5094435;28;20469;-65
2023/03/21 00:51:25;;;;;;;16.07;14.40;;;;;;;;;;5094291;28;20874;-65
2023/03/21 00:53:52;;;;;;;15.20;13.80;;;;;;;;;;5094275;28;20447;-65
2023/03/21 00:56:19;;;;;;;15.57;13.83;;;;;;;;;;5094409;28;20570;-65
2023/03/21 00:58:46;;;;;;;14.67;13.13;;;;;;;;;;5094530;28;20473;-65
2023/03/21 01:01:14;;;;;;;15.00;13.57;;;;;;;;;;5094380;28;20453;-65
2023/03/21 01:03:46;;;;;;;13.90;12.70;;;;;;;;;;5094383;28;20451;-65
2023/03/21 01:06:18;;;;;;;14.83;13.43;;;;;;;;;;5094208;28;20456;-65
2023/03/21 01:08:45;;;;;;;13.87;12.53;;;;;;;;;;5094332;28;20805;-65
2023/03/21 01:11:13;;;;;;;17.47;14.53;;;;;;;;;;5094130;28;20443;-65
2023/03/21 01:13:40;;;;;;;15.00;13.53;;;;;;;;;;5094074;28;20443;-65
2023/03/21 01:16:08;;;;;;;15.50;14.00;;;;;;;;;;5093162;28;20565;-65
2023/03/21 01:18:37;;;;;;;16.13;14.00;;;;;;;;;;5093548;28;20456;-65
2023/03/21 01:21:07;;;;;;;16.53;14.23;;;;;;;;;;5093649;28;20922;-65
2023/03/21 01:23:34;;;;;;;17.73;15.83;;;;;;;;;;5093703;28;20452;-65
2023/03/21 01:26:00;;;;;;;16.13;14.43;;;;;;;;;;5093673;28;20542;-65
2023/03/21 01:28:28;;;;;;;17.37;15.60;;;;;;;;;;5093816;28;20447;-65
2023/03/21 01:30:55;;;;;;;15.10;13.70;;;;;;;;;;5093538;28;20450;-65
2023/03/21 01:33:23;;;;;;;16.23;14.53;;;;;;;;;;5093465;28;20563;-65
2023/03/21 01:35:51;;;;;;;16.60;15.10;;;;;;;;;;5093861;28;20486;-65
2023/03/21 01:38:19;;;;;;;17.70;15.80;;;;;;;;;;5093627;28;20474;-65
2023/03/21 01:40:47;;;;;;;17.63;15.93;;;;;;;;;;5093491;28;20447;-65
2023/03/21 01:43:22;;;;;;;16.60;14.93;;;;;;;;;;5093446;28;20538;-65
2023/03/21 01:46:13;;;;;;;16.57;14.17;;;;;;;;;;5093247;28;20558;-65
2023/03/21 01:48:42;;;;;;;16.47;14.97;;;;;;;;;;5077998;28;20494;-65
2023/03/21 01:51:12;;;;;;;16.27;14.80;;;;;;;;;;5093133;28;20450;-65
2023/03/21 01:53:40;;;;;;;15.67;14.20;;;;;;;;;;5093146;28;20442;-65
2023/03/21 01:56:10;;;;;;;18.03;16.23;;;;;;;;;;5092954;28;20493;-65
2023/03/21 01:58:38;;;;;;;17.03;15.33;;;;;;;;;;5093282;28;20752;-65
2023/03/21 02:01:06;;;;;;;16.20;14.60;;;;;;;;;;5093043;28;20542;-65
2023/03/21 02:03:36;;;;;;;19.33;17.37;;;;;;;;;;5093062;28;20449;-65
2023/03/21 02:06:06;;;;;;;18.60;16.70;;;;;;;;;;5092949;28;20499;-65
2023/03/21 02:08:35;;;;;;;17.17;15.40;;;;;;;;;;5092859;28;20529;-65
2023/03/21 02:11:02;;;;;;;17.90;16.10;;;;;;;;;;5092671;28;20496;-65
2023/03/21 02:13:29;;;;;;;17.33;14.73;;;;;;;;;;5092995;28;20443;-65
2023/03/21 02:15:58;;;;;;;17.97;16.17;;;;;;;;;;5092710;28;20474;-65
2023/03/21 02:18:29;;;;;;;17.50;15.70;;;;;;;;;;5092709;28;20540;-65
2023/03/21 02:21:12;;;;;;;20.60;16.53;;;;;;;;;;5092681;28;20545;-65
2023/03/21 02:23:59;;;;;;;17.37;15.67;;;;;;;;;;5092678;28;20483;-65
2023/03/21 02:26:43;;;;;;;17.07;15.53;;;;;;;;;;5092756;28;20447;-65
2023/03/21 02:29:16;;;;;;;17.30;15.50;;;;;;;;;;5092526;28;20447;-65
2023/03/21 02:31:50;;;;;;;17.40;15.73;;;;;;;;;;5092396;28;20473;-65
2023/03/21 02:34:25;;;;;;;15.80;14.20;;;;;;;;;;5092666;28;20862;-65
2023/03/21 02:37:10;;;;;;;18.77;16.87;;;;;;;;;;5092615;28;20488;-65
2023/03/21 02:39:43;;;;;;;18.40;16.57;;;;;;;;;;5092250;28;20443;-65
2023/03/21 02:42:16;;;;;;;19.53;17.63;;;;;;;;;;5092524;28;20537;-65
2023/03/21 02:44:45;;;;;;;19.57;17.50;;;;;;;;;;5092477;28;20965;-65
2023/03/21 02:47:14;;;;;;;20.07;18.10;;;;;;;;;;5092632;28;20447;-65
2023/03/21 02:49:44;;;;;;;21.53;17.93;;;;;;;;;;5092391;28;20454;-65
2023/03/21 02:52:14;;;;;;;21.47;19.27;;;;;;;;;;5092656;28;20443;-65
2023/03/21 02:54:44;;;;;;;21.30;19.30;;;;;;;;;;5092625;28;20470;-65
2023/03/21 02:57:11;;;;;;;25.60;20.33;;;;;;;;;;5092426;28;20482;-65
2023/03/21 02:59:38;;;;;;;22.67;20.37;;;;;;;;;;5092126;28;21008;-65
2023/03/21 03:02:05;;;;;;;22.60;20.20;;;;;;;;;;5092470;28;20447;-65
2023/03/21 03:04:32;;;;;;;23.60;21.03;;;;;;;;;;5092556;28;20443;-65
2023/03/21 03:07:06;;;;;;;25.80;21.30;;;;;;;;;;5092097;28;20447;-65
2023/03/21 03:09:38;;;;;;;24.00;20.50;;;;;;;;;;5092225;28;20446;-65
2023/03/21 03:12:12;;;;;;;23.97;21.50;;;;;;;;;;5092098;28;20509;-67
2023/03/21 03:14:46;;;;;;;24.27;21.80;;;;;;;;;;5092239;28;20465;-67
2023/03/21 03:17:23;;;;;;;23.20;20.87;;;;;;;;;;5092079;28;20483;-67
2023/03/21 03:20:00;;;;;;;24.37;21.77;;;;;;;;;;5092345;28;20485;-67
2023/03/21 03:22:30;;;;;;;22.27;19.97;;;;;;;;;;5092534;28;20866;-67
2023/03/21 03:24:59;;;;;;;22.80;20.50;;;;;;;;;;5092423;28;20545;-67
2023/03/21 03:27:30;;;;;;;22.80;20.53;;;;;;;;;;5092157;28;20553;-67
2023/03/21 03:29:58;;;;;;;23.10;20.70;;;;;;;;;;5091984;28;20508;-67
2023/03/21 03:32:27;;;;;;;25.57;22.80;;;;;;;;;;5091974;28;20477;-67
2023/03/21 03:34:55;;;;;;;23.57;21.27;;;;;;;;;;5092170;28;21062;-67
2023/03/21 03:37:25;;;;;;;24.20;21.10;;;;;;;;;;5092070;28;20493;-67
2023/03/21 03:39:54;;;;;;;24.47;21.80;;;;;;;;;;5092750;28;20958;-67
2023/03/21 03:42:24;;;;;;;23.40;20.90;;;;;;;;;;5095638;28;20867;-67
2023/03/21 03:44:53;;;;;;;24.47;21.87;;;;;;;;;;5095770;28;20447;-67
2023/03/21 03:47:22;;;;;;;25.07;21.67;;;;;;;;;;5095900;28;20554;-67
2023/03/21 03:49:53;;;;;;;25.50;21.27;;;;;;;;;;5095518;28;20479;-67
2023/03/21 03:52:22;;;;;;;23.93;21.43;;;;;;;;;;5095555;28;20538;-67
2023/03/21 03:54:50;;;;;;;24.10;21.07;;;;;;;;;;5095522;28;20451;-67
2023/03/21 03:57:17;;;;;;;23.80;21.30;;;;;;;;;;5095232;28;20888;-67
2023/03/21 03:59:45;;;;;;;23.67;21.27;;;;;;;;;;5095255;28;20948;-67
2023/03/21 04:02:13;;;;;;;22.17;19.40;;;;;;;;;;5095379;28;20451;-67
2023/03/21 04:04:41;;;;;;;24.00;21.70;;;;;;;;;;5095239;28;20534;-67
2023/03/21 04:07:08;;;;;;;23.53;21.03;;;;;;;;;;5095171;28;20814;-67
2023/03/21 04:09:35;;;;;;;23.70;21.20;;;;;;;;;;5094854;28;20534;-67
2023/03/21 04:12:02;;;;;;;24.00;21.27;;;;;;;;;;5094877;28;20980;-67
2023/03/21 04:14:29;;;;;;;23.33;20.83;;;;;;;;;;5095051;28;20953;-67
2023/03/21 04:16:57;;;;;;;24.13;21.47;;;;;;;;;;5095182;28;20483;-67
2023/03/21 04:19:25;;;;;;;24.00;21.37;;;;;;;;;;5094887;28;20447;-67
2023/03/21 04:21:52;;;;;;;24.33;21.53;;;;;;;;;;5094981;28;20451;-67
2023/03/21 04:24:19;;;;;;;22.73;20.40;;;;;;;;;;5094831;28;20457;-67
2023/03/21 04:26:46;;;;;;;24.93;21.33;;;;;;;;;;5095065;28;20461;-67
2023/03/21 04:29:13;;;;;;;21.33;19.10;;;;;;;;;;5094916;28;20453;-67
2023/03/21 04:31:41;;;;;;;23.07;20.77;;;;;;;;;;5094625;28;20478;-67
2023/03/21 04:34:11;;;;;;;32.03;21.97;;;;;;;;;;5094732;28;20466;-67
2023/03/21 04:36:42;;;;;;;24.27;21.67;;;;;;;;;;5094437;28;20524;-67
2023/03/21 04:39:11;;;;;;;24.63;21.30;;;;;;;;;;5094868;28;20455;-66
2023/03/21 04:41:39;;;;;;;24.50;20.10;;;;;;;;;;5094732;28;20763;-66
2023/03/21 04:44:06;;;;;;;22.00;19.90;;;;;;;;;;5094675;28;20833;-66
2023/03/21 04:46:33;;;;;;;26.40;20.73;;;;;;;;;;5094590;28;20501;-66
2023/03/21 04:49:00;;;;;;;23.43;20.00;;;;;;;;;;5094513;28;20542;-67
2023/03/21 04:51:27;;;;;;;23.13;20.70;;;;;;;;;;5094527;28;20461;-66
2023/03/21 04:53:56;;;;;;;23.97;21.07;;;;;;;;;;5094406;28;20538;-66
2023/03/21 04:56:29;;;;;;;26.03;20.20;;;;;;;;;;5094365;28;20487;-66
2023/03/21 04:58:56;;;;;;;24.50;20.37;;;;;;;;;;5094340;28;20451;-66
2023/03/21 05:01:24;;;;;;;27.30;22.20;;;;;;;;;;5094254;28;20451;-66
2023/03/21 05:03:51;;;;;;;26.13;21.80;;;;;;;;;;5094146;28;20933;-66
2023/03/21 05:06:18;;;;;;;24.30;20.90;;;;;;;;;;5094250;28;20890;-67
2023/03/21 05:08:45;;;;;;;25.17;21.67;;;;;;;;;;5094164;28;20604;-66
2023/03/21 05:11:14;;;;;;;25.23;22.67;;;;;;;;;;5094202;28;20537;-66
2023/03/21 05:13:41;;;;;;;24.73;22.13;;;;;;;;;;5093840;28;20937;-66
2023/03/21 05:16:08;;;;;;;26.20;21.70;;;;;;;;;;5093791;28;20459;-66
2023/03/21 05:18:37;;;;;;;25.50;22.73;;;;;;;;;;5093816;28;20451;-66
2023/03/21 05:21:06;;;;;;;25.70;22.10;;;;;;;;;;5093926;28;20538;-66
2023/03/21 05:23:37;;;;;;;26.30;22.80;;;;;;;;;;5093863;28;20887;-66
2023/03/21 05:26:04;;;;;;;28.53;22.13;;;;;;;;;;5093967;28;20953;-66
2023/03/21 05:28:35;;;;;;;25.63;21.00;;;;;;;;;;5093651;28;20447;-66
2023/03/21 05:31:02;;;;;;;25.00;22.00;;;;;;;;;;5093768;28;20439;-66
2023/03/21 05:33:29;;;;;;;23.60;21.10;;;;;;;;;;5093682;28;20474;-67
2023/03/21 05:35:56;;;;;;;25.90;22.33;;;;;;;;;;5093712;28;20470;-67
2023/03/21 05:38:23;;;;;;;22.60;20.30;;;;;;;;;;5093692;28;20482;-67
2023/03/21 05:40:51;;;;;;;22.97;20.30;;;;;;;;;;5093964;28;20479;-67
2023/03/21 05:43:18;;;;;;;28.20;22.10;;;;;;;;;;5093597;28;20542;-67
2023/03/21 05:45:47;;;;;;;29.30;22.60;;;;;;;;;;5093873;28;20473;-67
2023/03/21 05:48:14;;;;;;;28.70;21.70;;;;;;;;;;5093766;28;20493;-67
2023/03/21 05:50:41;;;;;;;23.53;21.03;;;;;;;;;;5093652;28;20494;-67
2023/03/21 05:53:09;;;;;;;24.83;21.27;;;;;;;;;;5093640;28;20439;-67
2023/03/21 05:55:36;;;;;;;26.33;22.73;;;;;;;;;;5093460;28;20443;-67
2023/03/21 05:58:03;;;;;;;27.90;21.37;;;;;;;;;;5093186;28;20475;-68
2023/03/21 06:00:30;;;;;;;26.53;21.93;;;;;;;;;;5093595;28;20455;-67
2023/03/21 06:02:59;;;;;;;25.07;19.73;;;;;;;;;;5093123;28;20966;-68
2023/03/21 06:05:26;;;;;;;22.23;19.87;;;;;;;;;;5093607;28;20451;-68
2023/03/21 06:07:53;;;;;;;24.47;21.00;;;;;;;;;;5093402;28;20449;-68
2023/03/21 06:10:20;;;;;;;25.97;20.90;;;;;;;;;;5093416;28;20453;-66
2023/03/21 06:12:47;;;;;;;23.73;20.17;;;;;;;;;;5093432;28;20455;-67
2023/03/21 06:15:15;;;;;;;25.53;21.20;;;;;;;;;;5093401;28;20458;-67
2023/03/21 06:17:42;;;;;;;27.03;20.10;;;;;;;;;;5093252;28;20511;-66
2023/03/21 06:20:12;;;;;;;23.33;19.00;;;;;;;;;;5093596;28;20478;-68
2023/03/21 06:22:39;;;;;;;27.57;20.23;;;;;;;;;;5093313;28;20891;-68
2023/03/21 06:25:07;;;;;;;26.90;20.30;;;;;;;;;;5092899;28;20542;-67
2023/03/21 06:27:35;;;;;;;26.40;20.30;;;;;;;;;;5093232;28;20968;-67
2023/03/21 06:30:02;;;;;;;22.77;19.20;;;;;;;;;;5093058;28;20447;-67
2023/03/21 06:32:29;;;;;;;27.03;20.10;;;;;;;;;;5092729;28;20980;-67
2023/03/21 06:34:56;;;;;;;27.03;20.70;;;;;;;;;;5093040;28;20447;-67
2023/03/21 06:37:26;;;;;;;24.90;20.40;;;;;;;;;;5092874;28;20473;-67
2023/03/21 06:39:53;;;;;;;23.63;20.17;;;;;;;;;;5092888;28;20608;-67
2023/03/21 06:42:20;;;;;;;22.23;19.23;;;;;;;;;;5092994;28;20848;-67
2023/03/21 06:44:47;;;;;;;23.97;19.90;;;;;;;;;;5093062;28;20541;-67
2023/03/21 06:47:14;;;;;;;27.47;20.70;;;;;;;;;;5092829;28;20576;-67
2023/03/21 06:49:42;;;;;;;20.23;17.50;;;;;;;;;;5092777;28;20443;-67
2023/03/21 06:52:09;;;;;;;26.60;21.13;;;;;;;;;;5092646;28;20541;-66
2023/03/21 06:54:38;;;;;;;28.83;20.03;;;;;;;;;;5092932;28;20535;-67
2023/03/21 06:57:05;;;;;;;26.80;19.60;;;;;;;;;;5092613;28;20474;-66
2023/03/21 06:59:32;;;;;;;26.70;20.93;;;;;;;;;;5093015;28;20451;-67
2023/03/21 07:01:59;;;;;;;24.07;19.60;;;;;;;;;;5092702;28;20496;-68
2023/03/21 07:04:27;;;;;;;26.23;21.60;;;;;;;;;;5092616;28;20447;-67
2023/03/21 07:06:54;;;;;;;26.57;19.83;;;;;;;;;;5092490;28;21006;-66
2023/03/21 07:09:23;;;;;;;25.03;19.67;;;;;;;;;;5092831;28;20475;-66
2023/03/21 07:11:52;;;;;;;25.83;20.17;;;;;;;;;;5092755;28;20497;-67
2023/03/21 07:14:19;;;;;;;24.33;20.17;;;;;;;;;;5092760;28;20493;-67
2023/03/21 07:16:46;;;;;;;25.90;20.50;;;;;;;;;;5096522;28;20473;-67
2023/03/21 07:19:14;;;;;;;24.43;20.00;;;;;;;;;;5096446;28;20451;-67
2023/03/21 07:21:41;;;;;;;25.53;20.30;;;;;;;;;;5096733;28;20550;-67
2023/03/21 07:24:08;;;;;;;27.57;21.53;;;;;;;;;;5096455;28;20724;-67
2023/03/21 07:26:36;;;;;;;25.00;20.50;;;;;;;;;;5096318;28;20954;-67
2023/03/21 07:29:05;;;;;;;25.50;21.50;;;;;;;;;;5096445;28;20450;-68
2023/03/21 07:31:32;;;;;;;25.70;20.67;;;;;;;;;;5095846;28;20447;-67
2023/03/21 07:33:59;;;;;;;27.57;20.97;;;;;;;;;;5096414;28;20577;-67
2023/03/21 07:36:26;;;;;;;24.77;19.50;;;;;;;;;;5096288;28;20545;-68
2023/03/21 07:38:54;;;;;;;23.50;20.50;;;;;;;;;;5096049;28;20535;-66
2023/03/21 07:41:21;;;;;;;29.77;21.50;;;;;;;;;;5096082;28;20443;-66
2023/03/21 07:43:48;;;;;;;28.53;21.83;;;;;;;;;;5096078;28;20453;-66
2023/03/21 07:46:16;;;;;;;24.57;19.67;;;;;;;;;;5095922;28;20458;-66
2023/03/21 07:48:44;;;;;;;28.83;22.20;;;;;;;;;;5096149;28;20453;-67
2023/03/21 07:51:11;;;;;;;26.53;21.60;;;;;;;;;;5096202;28;20458;-67
2023/03/21 07:53:38;;;;;;;22.70;20.17;;;;;;;;;;5095913;28;20534;-67
2023/03/21 07:56:06;;;;;;;38.57;23.23;;;;;;;;;;5095924;28;20474;-67
2023/03/21 07:58:33;;;;;;;28.53;20.53;;;;;;;;;;5095448;28;20992;-67
2023/03/21 08:01:02;;;;;;;26.67;20.60;;;;;;;;;;5095522;28;20505;-68
2023/03/21 08:03:31;;;;;;;32.13;22.70;;;;;;;;;;5095625;28;20496;-68
2023/03/21 08:05:59;;;;;;;24.53;20.90;;;;;;;;;;5095485;28;20486;-67
2023/03/21 08:08:26;;;;;;;31.47;21.77;;;;;;;;;;5095608;28;20479;-66
2023/03/21 08:10:53;;;;;;;28.20;21.53;;;;;;;;;;5095674;28;20801;-68
2023/03/21 08:13:20;;;;;;;26.00;21.43;;;;;;;;;;5095337;28;20504;-64
2023/03/21 08:15:47;;;;;;;28.87;22.77;;;;;;;;;;5095467;28;20486;-61
2023/03/21 08:18:15;;;;;;;27.97;20.70;;;;;;;;;;5095214;28;20570;-67
2023/03/21 08:20:43;;;;;;;31.57;22.97;;;;;;;;;;5095157;28;20470;-63
2023/03/21 08:23:10;;;;;;;25.80;21.17;;;;;;;;;;5095310;28;20453;-62
2023/03/21 08:25:37;;;;;;;30.83;22.20;;;;;;;;;;5094393;28;20449;-62
2023/03/21 08:28:04;;;;;;;32.03;21.90;;;;;;;;;;5094996;28;20538;-63
2023/03/21 08:30:31;;;;;;;27.63;22.13;;;;;;;;;;5094912;28;20523;-67
2023/03/21 08:32:59;;;;;;;26.23;22.00;;;;;;;;;;5094860;28;21015;-63
2023/03/21 08:35:27;;;;;;;26.47;22.03;;;;;;;;;;5095062;28;20512;-68
2023/03/21 08:37:56;;;;;;;30.27;23.20;;;;;;;;;;5094913;28;20568;-64
2023/03/21 08:40:23;;;;;;;27.40;21.90;;;;;;;;;;5094668;28;20451;-68
2023/03/21 08:42:50;;;;;;;28.93;22.20;;;;;;;;;;5094942;28;20447;-67
2023/03/21 08:45:17;;;;;;;29.00;22.57;;;;;;;;;;5094926;28;20909;-65
2023/03/21 08:47:45;;;;;;;30.33;22.07;;;;;;;;;;5094773;28;20455;-67
2023/03/21 08:50:14;;;;;;;24.50;19.33;;;;;;;;;;5094682;28;20504;-64
2023/03/21 08:52:41;;;;;;;26.67;20.47;;;;;;;;;;5094216;28;20938;-65
2023/03/21 08:55:10;;;;;;;27.60;20.73;;;;;;;;;;5094240;28;20451;-65
2023/03/21 08:57:37;;;;;;;21.33;18.93;;;;;;;;;;5093114;28;20463;-65
2023/03/21 09:00:11;;;;;;;25.27;20.13;;;;;;;;;;5092631;28;20936;-65
2023/03/21 09:02:38;;;;;;;27.90;21.80;;;;;;;;;;5094061;28;20508;-65
2023/03/21 09:05:06;;;;;;;26.30;21.30;;;;;;;;;;5094613;28;20484;-66
2023/03/21 09:07:35;;;;;;;23.40;19.23;;;;;;;;;;5094239;28;20946;-66
2023/03/21 09:10:02;;;;;;;24.97;20.57;;;;;;;;;;5094453;28;20447;-67
2023/03/21 09:12:30;;;;;;;27.10;20.30;;;;;;;;;;5094336;28;20485;-65
2023/03/21 09:14:58;;;;;;;24.13;19.23;;;;;;;;;;5094264;28;20538;-66
2023/03/21 09:17:25;;;;;;;25.90;19.93;;;;;;;;;;5094176;28;20451;-65
2023/03/21 09:19:52;;;;;;;29.40;21.97;;;;;;;;;;5093932;28;20478;-65
2023/03/21 09:22:22;;;;;;;26.07;20.70;;;;;;;;;;5094184;28;20957;-65
2023/03/21 09:24:50;;;;;;;24.90;18.93;;;;;;;;;;5094173;28;20447;-67
2023/03/21 09:27:21;;;;;;;24.67;19.20;;;;;;;;;;5094027;28;20453;-65
2023/03/21 09:29:50;;;;;;;27.33;19.60;;;;;;;;;;5093772;28;20451;-66
2023/03/21 09:32:17;;;;;;;23.60;19.30;;;;;;;;;;5093799;28;20895;-66
2023/03/21 09:34:45;;;;;;;22.73;18.80;;;;;;;;;;5093611;28;20451;-74
2023/03/21 09:37:12;;;;;;;23.97;19.20;;;;;;;;;;5093055;28;20844;-70
2023/03/21 09:39:41;;;;;;;21.30;18.10;;;;;;;;;;5093831;28;20478;-76
2023/03/21 09:42:16;;;;;;;29.27;21.97;;;;;;;;;;5093733;28;20451;-67
2023/03/21 09:44:50;;;;;;;28.47;21.60;;;;;;;;;;5093529;28;20499;-70
2023/03/21 09:47:21;;;;;;;24.20;19.53;;;;;;;;;;5093398;28;20447;-67
2023/03/21 09:49:50;;;;;;;24.60;20.23;;;;;;;;;;5093607;28;20496;-70
2023/03/21 09:52:19;;;;;;;41.97;25.50;;;;;;;;;;5093282;28;20447;-72
2023/03/21 09:54:47;;;;;;;26.90;20.73;;;;;;;;;;5093259;28;20493;-64
2023/03/21 09:57:18;;;;;;;24.00;18.53;;;;;;;;;;5093141;28;20497;-74
2023/03/21 09:59:45;;;;;;;19.73;17.10;;;;;;;;;;5092969;28;20570;-65
2023/03/21 10:02:31;;;;;;;22.57;18.17;;;;;;;;;;5092962;28;21006;-63
2023/03/21 10:04:58;;;;;;;23.60;19.37;;;;;;;;;;5093130;28;20453;-66
2023/03/21 10:07:27;;;;;;;23.50;18.40;;;;;;;;;;5093225;28;20523;-64
2023/03/21 10:09:55;;;;;;;22.87;18.00;;;;;;;;;;5092985;28;20459;-69
2023/03/21 10:12:23;;;;;;;21.80;18.90;;;;;;;;;;5092930;28;20453;-65
2023/03/21 10:14:51;;;;;;;22.10;18.77;;;;;;;;;;5092985;28;20451;-64
2023/03/21 10:17:26;;;;;;;19.23;17.23;;;;;;;;;;5093040;28;20787;-69
2023/03/21 10:19:57;;;;;;;21.43;16.60;;;;;;;;;;5092608;28;20504;-67
2023/03/21 10:22:24;;;;;;;21.47;16.77;;;;;;;;;;5092860;28;20807;-69
2023/03/21 10:24:51;;;;;;;20.07;17.20;;;;;;;;;;5092792;28;20517;-64
2023/03/21 10:27:18;;;;;;;24.67;19.85;;;;;;;;;;5092313;28;20453;-64
2023/03/21 10:29:46;;;;;;;19.70;17.33;;;;;;;;;;5092791;28;20215;-64
2023/03/21 10:32:15;;;;;;;19.87;17.53;;;;;;;;;;5093015;28;20481;-67
2023/03/21 10:34:46;;;;;;;21.10;17.33;;;;;;;;;;5093554;28;20448;-62
2023/03/21 10:37:15;;;;;;;20.80;18.10;;;;;;;;;;5092711;28;20453;-66
2023/03/21 10:39:43;;;;;;;22.57;18.70;;;;;;;;;;5092847;28;20489;-68
2023/03/21 10:42:16;;;;;;;18.23;16.10;;;;;;;;;;5092808;28;20714;-71
2023/03/21 10:44:47;;;;;;;22.90;16.87;;;;;;;;;;5092949;28;20466;-67
2023/03/21 10:47:19;;;;;;;19.30;15.77;;;;;;;;;;5092982;28;20447;-66
2023/03/21 10:49:49;;;;;;;19.93;17.13;;;;;;;;;;5095583;28;20443;-62
2023/03/21 10:52:19;;;;;;;20.30;16.97;;;;;;;;;;5096968;28;20447;-62
2023/03/21 10:54:47;;;;;;;27.70;17.83;;;;;;;;;;5096953;28;20447;-67
2023/03/21 10:57:16;;;;;;;19.73;16.47;;;;;;;;;;5097176;28;20504;-66
2023/03/21 10:59:44;;;;;;;19.53;15.70;;;;;;;;;;5096813;28;20482;-68
2023/03/21 11:02:17;;;;;;;27.90;17.10;;;;;;;;;;5096732;28;20544;-66
2023/03/21 11:04:45;;;;;;;20.40;17.17;;;;;;;;;;5096983;28;20450;-71
2023/03/21 11:07:18;;;;;;;20.70;16.10;;;;;;;;;;5096926;28;20446;-63
2023/03/21 11:09:46;;;;;;;21.40;15.57;;;;;;;;;;5096889;28;20447;-65
2023/03/21 11:12:14;;;;;;;19.70;17.20;;;;;;;;;;5096760;28;20450;-64
2023/03/21 11:14:42;;;;;;;17.00;15.20;;;;;;;;;;5097458;28;20857;-68
2023/03/21 11:17:20;;;;;;;20.75;17.90;;;;;;;;;;5095900;28;20455;-66
2023/03/21 11:19:48;;;;;;;17.90;15.70;;;;;;;;;;5095797;28;20216;-66
2023/03/21 11:22:18;;;;;;;16.67;14.90;;;;;;;;;;5096530;28;20885;-71
2023/03/21 11:24:48;;;;;;;22.00;16.50;;;;;;;;;;5096313;28;20542;-67
2023/03/21 11:27:15;;;;;;;19.83;16.60;;;;;;;;;;5096321;28;20442;-69
2023/03/21 11:29:46;;;;;;;18.70;16.20;;;;;;;;;;5096449;28;20447;-75
2023/03/21 11:32:14;;;;;;;20.17;16.10;;;;;;;;;;5096149;28;20471;-65
2023/03/21 11:34:45;;;;;;;32.00;24.23;;;;;;;;;;5096169;28;20462;-67
2023/03/21 11:37:19;;;;;;;87.37;43.70;;;;;;;;;;5096232;28;20542;-63
2023/03/21 11:39:46;;;;;;;26.93;17.97;;;;;;;;;;5095807;28;20505;-63
2023/03/21 11:42:27;;;;;;;20.40;16.37;;;;;;;;;;5096021;28;20867;-65
2023/03/21 11:44:58;;;;;;;58.90;28.10;;;;;;;;;;5095799;28;20447;-65
2023/03/21 11:47:25;;;;;;;27.03;19.00;;;;;;;;;;5096328;28;20478;-66
2023/03/21 11:49:55;;;;;;;28.53;19.60;;;;;;;;;;5096019;28;20863;-64
2023/03/21 11:52:24;;;;;;;21.40;16.63;;;;;;;;;;5095937;28;20804;-65
2023/03/21 11:54:59;;;;;;;22.07;17.43;;;;;;;;;;5096000;28;20486;-64
2023/03/21 11:57:29;;;;;;;22.57;16.30;;;;;;;;;;5095757;28;20858;-63
2023/03/21 12:00:00;;;;;;;17.73;15.57;;;;;;;;;;5095671;28;20793;-72
2023/03/21 12:02:37;;;;;;;21.03;15.70;;;;;;;;;;5095217;28;20450;-63
2023/03/21 12:05:05;;;;;;;20.80;17.50;;;;;;;;;;5095667;28;20538;-70
2023/03/21 12:07:38;;;;;;;17.87;14.77;;;;;;;;;;5095715;28;20484;-61
2023/03/21 12:10:24;;;;;;;18.40;16.40;;;;;;;;;;5095369;28;20512;-65
2023/03/21 12:12:55;;;;;;;22.20;17.40;;;;;;;;;;5095233;28;20458;-68
2023/03/21 12:15:25;;;;;;;23.33;16.87;;;;;;;;;;5095862;28;20891;-76
2023/03/21 12:17:59;;;;;;;19.90;15.90;;;;;;;;;;5095319;28;20455;-65
2023/03/21 12:20:30;;;;;;;16.00;14.37;;;;;;;;;;5095494;28;21075;-66
2023/03/21 12:23:06;;;;;;;15.93;13.37;;;;;;;;;;5095248;28;20447;-65
2023/03/21 12:25:38;;;;;;;17.67;15.00;;;;;;;;;;5095487;28;20452;-65
2023/03/21 12:28:10;;;;;;;17.30;14.70;;;;;;;;;;5095513;28;20494;-64
2023/03/21 12:30:45;;;;;;;17.33;14.30;;;;;;;;;;5095342;28;20461;-64
2023/03/21 12:33:21;;;;;;;16.43;14.07;;;;;;;;;;5095422;28;20846;-67
2023/03/21 12:36:03;;;;;;;18.90;14.50;;;;;;;;;;5095041;28;20447;-60
2023/03/21 12:38:36;;;;;;;16.23;14.20;;;;;;;;;;5094447;28;20972;-60
2023/03/21 12:41:11;;;;;;;17.70;14.90;;;;;;;;;;5095059;28;20451;-61
2023/03/21 12:43:42;;;;;;;15.03;13.37;;;;;;;;;;5094583;28;20451;-61
2023/03/21 12:46:12;;;;;;;15.30;12.93;;;;;;;;;;5094667;28;20445;-64
2023/03/21 12:48:43;;;;;;;16.03;13.77;;;;;;;;;;5095191;28;20941;-61
2023/03/21 12:51:13;;;;;;;13.80;12.40;;;;;;;;;;5095181;28;20477;-69
2023/03/21 12:53:48;;;;;;;18.37;12.00;;;;;;;;;;5094925;28;20498;-71
2023/03/21 12:56:19;;;;;;;15.23;11.50;;;;;;;;;;5094880;28;20452;-67
2023/03/21 12:58:48;;;;;;;12.90;11.50;;;;;;;;;;5094575;28;20463;-69
2023/03/21 13:01:17;;;;;;;14.70;11.97;;;;;;;;;;5094769;28;20455;-63
2023/03/21 13:03:49;;;;;;;12.60;11.30;;;;;;;;;;5094703;28;20453;-64
2023/03/21 13:06:18;;;;;;;13.27;11.00;;;;;;;;;;5094433;28;20453;-61
2023/03/21 13:08:49;;;;;;;14.33;13.00;;;;;;;;;;5094196;28;20504;-66
2023/03/21 13:11:19;;;;;;;16.53;12.17;;;;;;;;;;5094710;28;20443;-64
2023/03/21 13:13:47;;;;;;;17.60;12.63;;;;;;;;;;5093660;28;20488;-66
2023/03/21 13:16:18;;;;;;;17.33;11.27;;;;;;;;;;5094304;28;20481;-64
2023/03/21 13:18:53;;;;;;;14.53;12.87;;;;;;;;;;5093968;28;20449;-65
2023/03/21 13:21:24;;;;;;;13.40;12.00;;;;;;;;;;5094051;28;20625;-65
2023/03/21 13:24:03;;;;;;;14.53;13.03;;;;;;;;;;5093791;28;20522;-65
2023/03/21 13:26:35;;;;;;;13.23;12.07;;;;;;;;;;5093853;28;20450;-68
2023/03/21 13:29:02;;;;;;;14.27;11.30;;;;;;;;;;5093906;28;20825;-68
2023/03/21 13:31:30;;;;;;;13.67;12.27;;;;;;;;;;5093532;28;20446;-72
2023/03/21 13:34:00;;;;;;;12.73;11.50;;;;;;;;;;5093826;28;20452;-72
2023/03/21 13:36:28;;;;;;;14.07;12.33;;;;;;;;;;5093907;28;20457;-69
2023/03/21 13:39:00;;;;;;;12.40;11.20;;;;;;;;;;5093448;28;20946;-62
2023/03/21 13:41:30;;;;;;;12.43;10.83;;;;;;;;;;5093455;28;20500;-63
2023/03/21 13:44:06;;;;;;;11.77;10.60;;;;;;;;;;5093558;28;20446;-67
2023/03/21 13:46:44;;;;;;;14.87;11.23;;;;;;;;;;5093562;28;20530;-70
2023/03/21 13:49:15;;;;;;;14.47;10.70;;;;;;;;;;5093655;28;20464;-68
2023/03/21 13:51:43;;;;;;;11.93;10.73;;;;;;;;;;5093614;28;20454;-70
2023/03/21 13:54:18;;;;;;;13.30;11.07;;;;;;;;;;5093564;28;20452;-65
2023/03/21 13:56:50;;;;;;;11.70;10.50;;;;;;;;;;5093396;28;20445;-70
2023/03/21 13:59:18;;;;;;;17.27;15.27;;;;;;;;;;5093335;28;20498;-68
2023/03/21 14:01:58;;;;;;;11.50;10.37;;;;;;;;;;5093455;28;20447;-69
2023/03/21 14:04:27;;;;;;;12.03;10.10;;;;;;;;;;5092451;28;20509;-69
2023/03/21 14:06:55;;;;;;;11.60;10.43;;;;;;;;;;5092545;28;20872;-69
2023/03/21 14:09:25;;;;;;;10.70;9.70;;;;;;;;;;5093127;28;20546;-69
2023/03/21 14:11:55;;;;;;;11.53;10.47;;;;;;;;;;5093347;28;20443;-69
2023/03/21 14:14:24;;;;;;;21.03;10.50;;;;;;;;;;5093444;28;20447;-69
2023/03/21 14:16:53;;;;;;;12.67;10.30;;;;;;;;;;5093248;28;20443;-69
2023/03/21 14:19:20;;;;;;;37.53;21.77;;;;;;;;;;5093397;28;20567;-69
2023/03/21 14:21:52;;;;;;;15.80;12.77;;;;;;;;;;5093478;28;20453;-69
2023/03/21 14:24:19;;;;;;;10.93;10.03;;;;;;;;;;5092989;28;20551;-69
2023/03/21 14:26:47;;;;;;;10.70;9.70;;;;;;;;;;5093292;28;20449;-69
2023/03/21 14:29:18;;;;;;;12.80;10.40;;;;;;;;;;5093037;28;20539;-69